Time;durP1;ratioP1;P1;durP2;ratioP2;P2;SDS_P1;SDS_P2;PMS_P1;PMS_P2;Temp;Humidity;BMP_temperature;BMP_pressure;BME280_temperature;BME280_humidity;BME280_pressure;Samples;Min_cycle;Max_cycle;Signal;HPM_P1;HPM_P2
2024/01/19 00:13:59;;;;;;;17.77;7.43;;;;;;;1.40;67.60;100384.47;4903942;29;20395;-78
2024/01/19 00:36:05;;;;;;;18.77;8.00;;;;;;;1.22;67.58;100409.06;5023923;28;20297;-77
2024/01/19 00:39:23;;;;;;;21.73;8.43;;;;;;;1.24;67.46;100409.78;5001937;28;20703;-82
2024/01/19 00:57:59;;;;;;;;;;;;;;;;;;;;;
2024/01/19 01:12:21;;;;;;;26.70;10.97;;;;;;;0.94;68.95;100439.41;4976070;28;20226;-77
2024/01/19 01:23:19;;;;;;;27.53;10.27;;;;;;;0.56;69.45;100458.97;5104209;28;20214;-79
2024/01/19 02:00:54;;;;;;;34.53;13.97;;;;;;;0.84;70.33;100527.00;4918845;29;20214;-78
2024/01/19 02:15:38;;;;;;;;;;;;;;;;;;;;;
2024/01/19 02:18:55;;;;;;;29.60;12.67;;;;;;;0.70;70.59;100548.63;4900364;29;20222;-78
2024/01/19 02:26:13;;;;;;;29.13;12.00;;;;;;;0.63;70.99;100552.50;4836930;29;20319;-79
2024/01/19 02:29:42;;;;;;;28.13;11.07;;;;;;;0.74;71.07;100555.38;4818660;29;20291;-78
2024/01/19 02:36:30;;;;;;;28.57;12.27;;;;;;;0.83;70.85;100554.03;4826674;29;20224;-80
2024/01/19 02:58:25;;;;;;;28.40;11.53;;;;;;;0.50;69.95;100582.78;4839551;29;20234;-80
2024/01/19 03:16:15;;;;;;;24.50;10.97;;;;;;;0.30;69.59;100599.50;4805928;29;20300;-79
2024/01/19 03:26:22;;;;;;;26.70;10.97;;;;;;;0.07;69.62;100602.44;4969055;28;20214;-78
2024/01/19 03:30:42;;;;;;;26.27;11.93;;;;;;;0.04;69.71;100605.22;4932521;29;20302;-78
2024/01/19 03:44:43;;;;;;;23.63;11.43;;;;;;;0.10;70.00;100609.25;4970978;28;20312;-78
2024/01/19 03:47:59;;;;;;;29.67;11.10;;;;;;;0.03;69.94;100607.88;5005144;28;20229;-78
2024/01/19 03:51:04;;;;;;;28.40;11.47;;;;;;;0.07;70.13;100607.66;5015928;28;20238;-79
2024/01/19 03:54:38;;;;;;;23.03;10.90;;;;;;;0.12;70.11;100610.03;5027750;28;20441;-78
2024/01/19 04:12:30;;;;;;;27.20;12.27;;;;;;;-0.20;68.96;100627.31;4844355;29;20239;-77
2024/01/19 04:22:49;;;;;;;23.70;10.03;;;;;;;-0.40;70.01;100638.69;4883002;28;20801;-80
2024/01/19 04:25:39;;;;;;;25.90;10.83;;;;;;;-0.35;69.89;100641.09;4970098;28;20228;-78
2024/01/19 04:35:34;;;;;;;26.97;10.67;;;;;;;-0.42;69.72;100657.00;4970480;28;20248;-77
2024/01/19 04:38:06;;;;;;;24.37;10.43;;;;;;;-0.50;69.52;100664.34;4967945;28;20227;-79
2024/01/19 04:48:11;;;;;;;22.80;10.53;;;;;;;-0.50;69.84;100661.75;4895137;29;20219;-78
2024/01/19 04:58:45;;;;;;;19.90;9.80;;;;;;;-0.64;69.05;100677.19;4920358;29;21123;-79
2024/01/19 05:01:29;;;;;;;;;;;;;;;;;;;;;
2024/01/19 05:08:03;;;;;;;30.63;11.87;;;;;;;-0.89;69.13;100687.06;4935118;28;20210;-77
2024/01/19 05:11:11;;;;;;;24.17;11.00;;;;;;;-0.78;69.04;100690.00;4981489;28;20796;-78
2024/01/19 05:14:06;;;;;;;27.33;10.70;;;;;;;-0.76;69.18;100701.19;4928232;28;20391;-76
2024/01/19 05:16:40;;;;;;;30.13;11.40;;;;;;;-0.82;69.03;100701.47;5024182;28;20208;-77
2024/01/19 05:19:22;;;;;;;23.00;10.60;;;;;;;-0.83;68.91;100702.38;5028685;28;20565;-78
2024/01/19 05:22:00;;;;;;;28.37;11.70;;;;;;;-0.89;68.92;100702.69;5036582;28;20213;-79
2024/01/19 05:27:34;;;;;;;25.33;11.83;;;;;;;-1.05;69.05;100712.06;5032985;28;20215;-78
2024/01/19 05:30:15;;;;;;;24.37;11.10;;;;;;;-1.10;68.90;100719.25;5036306;28;20211;-77
2024/01/19 05:32:52;;;;;;;20.83;10.23;;;;;;;-1.16;68.83;100729.03;5031066;28;20204;-79
2024/01/19 05:36:13;;;;;;;22.23;10.67;;;;;;;-1.23;68.76;100719.78;5031457;28;20238;-79
2024/01/19 05:38:59;;;;;;;24.67;11.53;;;;;;;-1.32;68.88;100725.38;5013502;28;20240;-79
2024/01/19 05:41:28;;;;;;;23.77;11.20;;;;;;;-1.34;68.89;100731.59;5033183;28;20310;-78
2024/01/19 05:44:07;;;;;;;23.47;11.07;;;;;;;-1.38;68.76;100730.88;5032839;28;20213;-78
2024/01/19 05:46:51;;;;;;;26.43;11.13;;;;;;;-1.43;68.85;100743.25;5029251;28;20531;-78
2024/01/19 05:49:36;;;;;;;24.70;10.27;;;;;;;-1.47;68.91;100746.88;5006593;28;20233;-78
2024/01/19 05:52:20;;;;;;;28.30;11.70;;;;;;;-1.48;68.85;100755.56;5025566;28;20215;-78
2024/01/19 05:57:55;;;;;;;;;;;;;;;;;;;;;
2024/01/19 06:00:24;;;;;;;26.50;11.40;;;;;;;-1.59;68.65;100765.63;5017281;28;20214;-77
2024/01/19 06:06:33;;;;;;;24.60;10.43;;;;;;;-1.60;68.56;100776.91;5017595;28;20475;-77
2024/01/19 06:09:03;;;;;;;23.30;10.20;;;;;;;-1.65;68.10;100778.84;5036251;28;20449;-78
2024/01/19 06:11:35;;;;;;;27.50;12.07;;;;;;;-1.65;68.74;100773.66;5036206;28;20461;-80
2024/01/19 06:14:15;;;;;;;21.73;10.67;;;;;;;-1.62;69.44;100784.78;5035584;28;20461;-79
2024/01/19 06:16:48;;;;;;;27.30;12.40;;;;;;;-1.59;70.19;100787.25;5033243;28;20576;-78
2024/01/19 06:19:19;;;;;;;30.83;12.37;;;;;;;-1.58;70.83;100795.88;5036154;28;20458;-78
2024/01/19 06:21:53;;;;;;;26.97;12.20;;;;;;;-1.56;71.11;100794.91;5033091;28;21328;-78
2024/01/19 06:24:35;;;;;;;29.13;12.73;;;;;;;-1.53;70.73;100801.75;5030688;28;20507;-79
2024/01/19 06:30:11;;;;;;;25.97;11.23;;;;;;;-1.49;70.43;100825.88;5024995;28;20464;-79
2024/01/19 06:32:49;;;;;;;27.03;11.93;;;;;;;-1.48;70.32;100828.41;5029077;28;20209;-79
2024/01/19 06:35:19;;;;;;;23.17;10.60;;;;;;;-1.42;70.26;100814.31;5026929;28;20479;-79
2024/01/19 06:37:48;;;;;;;23.47;11.80;;;;;;;-1.26;69.64;100828.38;5026109;28;20253;-80
2024/01/19 06:40:20;;;;;;;26.57;11.40;;;;;;;-1.21;69.19;100831.63;5030594;28;20457;-78
2024/01/19 06:42:51;;;;;;;24.57;10.47;;;;;;;-1.18;68.85;100834.94;5025598;28;20551;-78
2024/01/19 06:45:28;;;;;;;22.20;10.43;;;;;;;-1.18;68.62;100842.75;5029085;28;20292;-79
2024/01/19 06:48:16;;;;;;;25.80;11.17;;;;;;;-1.24;68.35;100843.03;5025715;28;20307;-80
2024/01/19 06:50:46;;;;;;;25.20;12.03;;;;;;;-1.27;68.47;100853.53;5029293;28;20210;-79
2024/01/19 06:56:35;;;;;;;28.67;11.37;;;;;;;-1.27;68.08;100868.31;5003323;28;20239;-78
2024/01/19 06:59:14;;;;;;;25.20;11.50;;;;;;;-1.29;68.03;100880.53;5029478;28;20467;-79
2024/01/19 07:01:45;;;;;;;26.97;12.70;;;;;;;-1.33;67.89;100885.03;5028468;28;20457;-78
2024/01/19 07:04:23;;;;;;;33.13;12.80;;;;;;;-1.37;67.57;100890.41;5026006;28;20481;-77
2024/01/19 07:07:11;;;;;;;27.67;12.37;;;;;;;-1.45;67.45;100884.66;5022978;28;20215;-76
2024/01/19 07:09:39;;;;;;;34.27;12.77;;;;;;;-1.53;67.39;100887.59;5026845;28;20462;-78
2024/01/19 07:12:08;;;;;;;29.70;12.20;;;;;;;-1.58;67.40;100892.09;5027535;28;20218;-78
2024/01/19 07:15:07;;;;;;;30.70;13.13;;;;;;;-1.62;67.22;100894.00;5029261;28;20437;-79
2024/01/19 07:17:39;;;;;;;29.87;12.97;;;;;;;-1.51;67.18;100901.38;5015505;28;20574;-77
2024/01/19 07:20:09;;;;;;;27.20;12.73;;;;;;;-1.43;66.94;100901.91;5029654;28;20488;-78
2024/01/19 07:22:54;;;;;;;25.33;12.07;;;;;;;-1.37;67.06;100891.25;5026594;28;20471;-77
2024/01/19 07:25:26;;;;;;;29.07;12.57;;;;;;;-1.43;66.70;100898.47;5032063;28;20467;-77
2024/01/19 07:31:32;;;;;;;30.77;11.93;;;;;;;-1.29;66.30;100917.81;5011314;28;20470;-78
2024/01/19 07:34:26;;;;;;;;;;;;;;;;;;;;;
2024/01/19 07:36:56;;;;;;;28.60;13.47;;;;;;;-1.21;66.27;100909.69;5030973;28;21021;-78
2024/01/19 07:42:58;;;;;;;29.63;11.87;;;;;;;-1.20;65.90;100914.84;5027774;28;20226;-78
2024/01/19 07:45:40;;;;;;;31.47;11.97;;;;;;;-1.22;65.55;100924.44;5021315;28;20825;-64
2024/01/19 07:48:08;;;;;;;23.23;10.67;;;;;;;-1.21;65.09;100926.16;5017811;28;20703;-64
2024/01/19 07:50:37;;;;;;;26.30;11.43;;;;;;;-1.28;65.29;100931.66;5021300;28;21168;-65
2024/01/19 07:53:06;;;;;;;24.07;11.50;;;;;;;-1.28;65.28;100937.72;5018526;28;21312;-65
2024/01/19 07:55:39;;;;;;;22.83;10.93;;;;;;;-1.24;65.57;100939.31;5018086;28;20496;-63
2024/01/19 07:58:26;;;;;;;32.70;12.97;;;;;;;-1.19;65.74;100941.69;5018800;28;20224;-65
2024/01/19 08:01:06;;;;;;;29.53;11.40;;;;;;;-1.08;65.55;100946.47;5007384;28;20218;-66
2024/01/19 08:03:35;;;;;;;30.73;11.63;;;;;;;-1.03;65.32;100955.78;5016792;28;20450;-65
2024/01/19 08:06:04;;;;;;;29.30;12.30;;;;;;;-0.94;65.13;100960.59;5018167;28;20466;-64
2024/01/19 08:08:32;;;;;;;29.13;13.03;;;;;;;-0.94;64.80;100964.97;5016422;28;21098;-64
2024/01/19 08:11:02;;;;;;;23.47;11.83;;;;;;;-0.96;64.93;100971.97;5019402;28;20460;-64
2024/01/19 08:13:30;;;;;;;25.50;11.60;;;;;;;-1.01;64.94;100969.59;5017490;28;20550;-63
2024/01/19 08:15:59;;;;;;;34.23;12.60;;;;;;;-1.07;65.22;100974.19;5013370;28;20497;-65
2024/01/19 08:18:33;;;;;;;30.00;12.57;;;;;;;-1.19;65.12;100984.19;5017995;28;20211;-65
2024/01/19 08:21:05;;;;;;;27.27;11.50;;;;;;;-1.15;65.63;100992.72;5015889;28;20648;-64
2024/01/19 08:23:33;;;;;;;29.50;13.33;;;;;;;-1.08;65.58;100983.75;5015736;28;20701;-65
2024/01/19 08:26:07;;;;;;;27.63;12.83;;;;;;;-1.06;65.19;100978.50;5015594;28;20963;-65
2024/01/19 08:28:35;;;;;;;30.33;14.03;;;;;;;-1.06;65.41;100986.31;5015965;28;20212;-65
2024/01/19 08:31:04;;;;;;;34.87;14.13;;;;;;;-1.02;65.03;100993.91;5016179;28;20211;-65
2024/01/19 08:33:32;;;;;;;29.83;12.77;;;;;;;-0.94;65.01;100991.00;5015637;28;20451;-65
2024/01/19 08:36:02;;;;;;;26.73;12.33;;;;;;;-0.85;64.64;100995.84;5016142;28;20319;-65
2024/01/19 08:38:31;;;;;;;29.10;13.23;;;;;;;-0.78;64.13;100992.06;5017618;28;20963;-65
2024/01/19 08:40:59;;;;;;;29.27;13.40;;;;;;;-0.71;63.89;101003.09;5014095;28;20465;-65
2024/01/19 08:43:29;;;;;;;27.47;12.37;;;;;;;-0.68;64.11;101002.94;5017061;28;20234;-64
2024/01/19 08:45:58;;;;;;;29.87;13.50;;;;;;;-0.61;63.91;101010.44;5014817;28;20236;-64
2024/01/19 08:48:27;;;;;;;25.67;12.60;;;;;;;-0.52;64.11;101027.44;5015441;28;20216;-65
2024/01/19 08:50:57;;;;;;;31.30;13.17;;;;;;;-0.43;64.08;101020.09;5017343;28;20219;-66
2024/01/19 08:53:26;;;;;;;30.20;13.23;;;;;;;-0.35;63.94;101026.75;5014692;28;20214;-64
2024/01/19 08:55:54;;;;;;;26.97;13.03;;;;;;;-0.26;64.15;101035.00;5017595;28;20240;-64
2024/01/19 08:58:23;;;;;;;27.87;12.03;;;;;;;-0.12;63.92;101034.41;5018949;28;20215;-65
2024/01/19 09:00:52;;;;;;;30.93;12.83;;;;;;;-0.04;63.89;101038.38;5016035;28;20240;-64
2024/01/19 09:03:23;;;;;;;27.73;13.30;;;;;;;0.03;63.88;101046.78;5015087;28;20211;-65
2024/01/19 09:05:53;;;;;;;28.57;13.07;;;;;;;0.11;63.70;101059.47;5017128;28;20249;-64
2024/01/19 09:08:22;;;;;;;29.47;12.97;;;;;;;0.18;64.02;101063.50;5018422;28;20306;-65
2024/01/19 09:10:59;;;;;;;28.53;13.43;;;;;;;0.25;63.99;101068.41;5014635;28;20204;-65
2024/01/19 09:13:28;;;;;;;27.53;12.37;;;;;;;0.33;63.97;101081.09;5015025;28;20295;-63
2024/01/19 09:16:00;;;;;;;26.23;12.43;;;;;;;0.65;63.22;101075.25;5015850;28;20287;-64
2024/01/19 09:18:29;;;;;;;29.57;13.13;;;;;;;1.63;61.55;101078.41;5017225;28;20213;-64
2024/01/19 09:21:00;;;;;;;29.63;12.87;;;;;;;3.24;58.26;101085.50;5014005;28;20690;-65
2024/01/19 09:23:29;;;;;;;28.07;12.33;;;;;;;5.62;52.44;101081.25;5015910;28;20305;-65
2024/01/19 09:25:58;;;;;;;27.27;11.97;;;;;;;6.98;47.57;101092.94;5016301;28;20719;-65
2024/01/19 09:28:29;;;;;;;25.43;12.73;;;;;;;6.12;47.97;101097.25;5016514;28;20577;-66
2024/01/19 09:30:59;;;;;;;23.80;11.80;;;;;;;5.55;49.03;101100.16;5018158;28;20218;-65
2024/01/19 09:33:27;;;;;;;23.73;11.80;;;;;;;5.65;48.48;101109.97;5015684;28;20222;-66
2024/01/19 09:35:55;;;;;;;24.03;12.30;;;;;;;6.73;47.28;101117.56;5013452;28;20567;-66
2024/01/19 09:38:24;;;;;;;23.70;10.70;;;;;;;7.50;45.47;101134.84;5019948;28;21006;-65
2024/01/19 09:41:11;;;;;;;24.07;12.30;;;;;;;8.41;43.84;101135.91;5020902;28;20280;-66
2024/01/19 09:43:42;;;;;;;19.47;11.33;;;;;;;7.26;44.46;101134.84;5019517;28;20210;-65
2024/01/19 09:46:19;;;;;;;20.73;10.30;;;;;;;6.00;46.26;101144.50;5020777;28;20217;-64
2024/01/19 09:49:00;;;;;;;17.10;11.23;;;;;;;5.21;48.15;101156.72;5020290;28;20198;-66
2024/01/19 09:51:41;;;;;;;21.77;11.60;;;;;;;4.53;49.64;101167.09;5019430;28;20210;-66
2024/01/19 09:54:11;;;;;;;19.63;10.27;;;;;;;4.00;51.24;101172.88;5022291;28;20558;-66
2024/01/19 09:56:39;;;;;;;21.90;10.87;;;;;;;3.58;52.19;101176.19;5022544;28;20267;-66
2024/01/19 09:59:12;;;;;;;20.53;11.47;;;;;;;3.21;53.08;101178.22;5017071;28;20212;-66
2024/01/19 10:01:44;;;;;;;20.03;10.43;;;;;;;2.90;54.14;101175.59;5019866;28;20758;-66
2024/01/19 10:04:14;;;;;;;21.30;10.93;;;;;;;2.80;54.81;101185.72;5018884;28;20243;-65
2024/01/19 10:06:45;;;;;;;27.40;12.27;;;;;;;2.76;55.44;101185.94;5019259;28;21125;-65
2024/01/19 10:09:15;;;;;;;22.97;12.33;;;;;;;2.62;55.66;101184.91;5017804;28;20220;-66
2024/01/19 10:11:46;;;;;;;22.37;11.57;;;;;;;2.54;56.54;101187.09;5017365;28;20211;-65
2024/01/19 10:14:18;;;;;;;24.40;12.37;;;;;;;2.47;56.89;101185.69;5020892;28;20204;-65
2024/01/19 10:16:49;;;;;;;20.77;11.67;;;;;;;2.33;57.49;101188.16;5020098;28;20207;-66
2024/01/19 10:19:20;;;;;;;25.93;13.43;;;;;;;2.20;58.04;101192.31;5018755;28;20211;-65
2024/01/19 10:21:56;;;;;;;23.40;12.20;;;;;;;2.16;58.51;101209.13;5018244;28;20293;-65
2024/01/19 10:24:24;;;;;;;26.73;12.83;;;;;;;2.11;58.89;101213.75;5021950;28;20226;-65
2024/01/19 10:26:55;;;;;;;22.93;12.00;;;;;;;2.09;59.27;101207.72;5020024;28;20240;-65
2024/01/19 10:29:24;;;;;;;20.37;11.03;;;;;;;2.25;59.69;101206.03;5021217;28;20209;-65
2024/01/19 10:31:54;;;;;;;27.27;12.17;;;;;;;2.49;58.98;101203.94;5018937;28;20209;-65
2024/01/19 10:34:26;;;;;;;24.17;12.40;;;;;;;2.63;58.71;101207.56;5020262;28;20213;-65
2024/01/19 10:36:55;;;;;;;25.97;12.70;;;;;;;2.69;58.82;101205.53;5021653;28;20202;-65
2024/01/19 10:39:25;;;;;;;30.07;13.23;;;;;;;2.71;58.74;101198.44;5019378;28;20210;-66
2024/01/19 10:42:06;;;;;;;28.13;13.70;;;;;;;4.14;57.51;101202.63;5019403;28;20245;-65
2024/01/19 10:44:35;;;;;;;30.20;13.07;;;;;;;6.39;52.71;101198.94;5019931;28;20223;-66
2024/01/19 10:47:07;;;;;;;21.97;12.70;;;;;;;6.78;50.56;101192.72;5018762;28;20216;-65
2024/01/19 10:49:37;;;;;;;22.40;12.87;;;;;;;6.49;50.35;101187.78;5016337;28;20220;-66
2024/01/19 10:52:06;;;;;;;27.60;14.10;;;;;;;8.03;48.09;101196.03;5022425;28;20357;-65
2024/01/19 10:54:35;;;;;;;24.30;14.50;;;;;;;11.13;41.91;101192.00;5017119;28;20216;-65
2024/01/19 10:57:04;;;;;;;23.10;14.53;;;;;;;13.12;38.33;101190.41;5018279;28;20217;-67
2024/01/19 10:59:34;;;;;;;22.17;13.90;;;;;;;13.66;36.82;101190.56;5021925;28;20210;-67
2024/01/19 11:02:05;;;;;;;20.53;14.13;;;;;;;12.52;37.10;101193.53;5018518;28;20206;-66
2024/01/19 11:04:34;;;;;;;20.77;15.10;;;;;;;11.53;38.74;101205.25;5019004;28;20988;-66
2024/01/19 11:07:06;;;;;;;22.47;15.53;;;;;;;10.78;40.16;101201.22;5018793;28;20202;-67
2024/01/19 11:09:35;;;;;;;19.80;14.30;;;;;;;10.39;40.74;101205.41;5017454;28;20738;-68
2024/01/19 11:12:09;;;;;;;24.40;15.17;;;;;;;9.63;41.25;101208.22;5017510;28;20201;-67
2024/01/19 11:14:42;;;;;;;23.13;15.67;;;;;;;8.84;42.88;101210.09;5016656;28;20316;-67
2024/01/19 11:17:13;;;;;;;21.20;14.53;;;;;;;8.44;43.54;101204.41;5017012;28;20415;-66
2024/01/19 11:19:42;;;;;;;23.73;14.50;;;;;;;8.25;44.33;101219.91;5021381;28;20585;-65
2024/01/19 11:22:11;;;;;;;20.47;13.53;;;;;;;8.39;44.17;101224.19;5024708;28;20214;-65
2024/01/19 11:24:42;;;;;;;17.00;12.47;;;;;;;8.44;43.59;101214.13;5020534;28;20225;-66
2024/01/19 11:27:19;;;;;;;19.20;12.57;;;;;;;8.14;43.70;101222.50;5021820;28;20301;-66
2024/01/19 11:30:01;;;;;;;20.70;12.53;;;;;;;8.48;43.79;101219.06;5021505;28;20215;-66
2024/01/19 11:32:31;;;;;;;20.77;12.60;;;;;;;10.97;40.03;101215.53;5021041;28;20598;-66
2024/01/19 11:35:02;;;;;;;21.50;12.43;;;;;;;13.02;36.50;101213.56;5019390;28;20201;-67
2024/01/19 11:37:47;;;;;;;20.00;12.63;;;;;;;13.02;36.14;101216.22;5020708;28;20233;-67
2024/01/19 11:40:52;;;;;;;21.87;13.07;;;;;;;12.07;36.92;101204.78;5018563;28;20276;-68
2024/01/19 11:46:51;;;;;;;20.70;13.63;;;;;;;12.91;35.46;101220.91;5016655;28;20222;-67
2024/01/19 11:49:49;;;;;;;18.83;12.90;;;;;;;13.03;35.29;101223.22;5018438;28;20259;-68
2024/01/19 11:52:37;;;;;;;23.57;13.67;;;;;;;11.12;37.61;101219.50;5019221;28;20206;-68
2024/01/19 11:55:45;;;;;;;19.97;14.03;;;;;;;9.57;40.52;101224.63;5017163;28;20204;-67
2024/01/19 11:58:39;;;;;;;20.60;13.67;;;;;;;8.19;43.57;101225.63;5019673;28;20233;-67
2024/01/19 12:01:12;;;;;;;22.43;15.10;;;;;;;7.32;45.56;101232.00;5017631;28;20202;-67
2024/01/19 12:03:49;;;;;;;21.07;13.63;;;;;;;6.69;46.78;101232.03;5020819;28;20681;-67
2024/01/19 12:06:25;;;;;;;24.77;14.47;;;;;;;6.15;47.94;101231.34;5020725;28;20267;-66
2024/01/19 12:09:06;;;;;;;22.83;13.50;;;;;;;5.83;48.87;101233.41;5016034;28;20209;-66
2024/01/19 12:11:39;;;;;;;23.87;13.60;;;;;;;5.56;49.87;101242.13;5018001;28;20758;-65
2024/01/19 12:14:14;;;;;;;25.47;13.57;;;;;;;5.54;50.15;101248.44;5018948;28;20835;-67
2024/01/19 12:16:44;;;;;;;24.10;13.27;;;;;;;5.42;51.08;101251.84;5014960;28;20215;-65
2024/01/19 12:19:16;;;;;;;25.00;13.63;;;;;;;5.36;51.07;101241.72;5014838;28;20220;-65
2024/01/19 12:21:49;;;;;;;24.67;12.87;;;;;;;5.01;51.60;101238.63;5015466;28;20219;-65
2024/01/19 12:24:20;;;;;;;30.20;14.90;;;;;;;4.39;53.92;101232.72;5016734;28;20263;-65
2024/01/19 12:26:53;;;;;;;22.37;12.70;;;;;;;4.26;54.25;101243.09;5014172;28;20214;-65
2024/01/19 12:29:31;;;;;;;25.40;12.70;;;;;;;4.03;54.80;101239.19;5015161;28;20283;-66
2024/01/19 12:32:14;;;;;;;20.03;12.17;;;;;;;3.90;55.33;101234.69;5018724;28;20209;-65
2024/01/19 12:34:56;;;;;;;24.07;12.27;;;;;;;3.71;56.03;101234.88;5014991;28;21329;-66
2024/01/19 12:37:28;;;;;;;22.63;12.23;;;;;;;3.81;56.41;101238.69;5017037;28;20295;-64
2024/01/19 12:40:12;;;;;;;25.83;13.20;;;;;;;3.87;56.56;101235.72;5017882;28;20233;-64
2024/01/19 12:42:42;;;;;;;31.87;14.00;;;;;;;3.89;56.63;101239.09;5019232;28;20267;-65
2024/01/19 12:45:17;;;;;;;29.63;13.70;;;;;;;3.79;56.86;101232.69;5015511;28;20217;-66
2024/01/19 12:47:50;;;;;;;24.87;13.30;;;;;;;3.68;57.07;101235.09;5017621;28;20212;-65
2024/01/19 12:50:24;;;;;;;23.73;12.63;;;;;;;3.56;57.44;101233.13;5015441;28;20204;-65
2024/01/19 12:53:00;;;;;;;24.27;13.93;;;;;;;3.44;57.78;101220.69;5017700;28;20197;-65
2024/01/19 12:55:34;;;;;;;22.57;11.77;;;;;;;3.27;58.59;101219.84;5015053;28;20205;-65
2024/01/19 12:58:08;;;;;;;27.43;12.73;;;;;;;3.24;58.71;101227.88;5015774;28;20203;-66
2024/01/19 13:00:38;;;;;;;23.13;11.90;;;;;;;3.22;59.09;101226.25;5017827;28;20216;-66
2024/01/19 13:03:09;;;;;;;27.90;12.37;;;;;;;3.22;59.26;101219.25;5014803;28;20220;-66
2024/01/19 13:05:42;;;;;;;24.97;11.60;;;;;;;3.22;59.15;101227.13;5015244;28;20229;-65
2024/01/19 13:08:23;;;;;;;21.60;11.63;;;;;;;3.26;59.32;101223.38;5017206;28;20309;-65
2024/01/19 13:11:14;;;;;;;22.07;10.83;;;;;;;3.21;59.48;101220.19;5016278;28;20204;-65
2024/01/19 13:13:43;;;;;;;21.07;12.03;;;;;;;3.33;59.89;101230.00;5016453;28;20315;-66
2024/01/19 13:16:21;;;;;;;28.53;12.37;;;;;;;3.37;59.86;101230.66;5015824;28;20211;-66
2024/01/19 13:19:02;;;;;;;24.03;11.47;;;;;;;3.48;60.01;101228.31;5015087;28;20294;-68
2024/01/19 13:21:34;;;;;;;19.90;10.80;;;;;;;3.60;59.66;101232.88;5019646;28;20207;-65
2024/01/19 13:24:15;;;;;;;21.10;11.07;;;;;;;3.66;59.29;101236.94;5015677;28;20346;-65
2024/01/19 13:26:58;;;;;;;23.00;11.17;;;;;;;3.65;59.06;101237.88;5016886;28;20262;-66
2024/01/19 13:29:29;;;;;;;23.73;11.83;;;;;;;3.62;59.10;101240.66;5017022;28;20212;-65
2024/01/19 13:31:58;;;;;;;22.17;11.47;;;;;;;3.57;59.13;101237.44;5016091;28;20275;-65
2024/01/19 13:34:40;;;;;;;24.10;12.20;;;;;;;3.53;59.33;101249.88;4979946;28;20227;-66
2024/01/19 13:37:09;;;;;;;24.07;11.97;;;;;;;3.56;59.45;101241.00;5017082;28;20302;-65
2024/01/19 13:39:42;;;;;;;25.30;10.87;;;;;;;3.45;59.92;101238.97;5016933;28;20235;-66
2024/01/19 13:42:10;;;;;;;23.50;11.90;;;;;;;3.37;60.37;101247.25;5015316;28;20686;-65
2024/01/19 13:44:42;;;;;;;27.27;12.13;;;;;;;3.29;60.59;101241.56;5015681;28;20213;-65
2024/01/19 13:47:13;;;;;;;27.13;12.33;;;;;;;3.19;61.26;101243.00;5014190;28;20216;-67
2024/01/19 13:49:48;;;;;;;26.43;11.70;;;;;;;3.26;61.25;101249.59;5015166;28;20208;-65
2024/01/19 13:52:17;;;;;;;25.17;11.63;;;;;;;3.23;61.76;101255.03;5014062;28;20297;-67
2024/01/19 13:54:48;;;;;;;27.27;11.40;;;;;;;3.21;61.67;101256.03;5016499;28;20212;-66
2024/01/19 13:57:17;;;;;;;24.93;11.37;;;;;;;3.12;62.30;101257.34;5014223;28;20240;-64
2024/01/19 13:59:47;;;;;;;22.37;11.33;;;;;;;3.06;62.74;101262.09;5017170;28;20270;-65
2024/01/19 14:02:18;;;;;;;22.07;10.50;;;;;;;2.95;62.78;101263.50;5017844;28;20224;-65
2024/01/19 14:04:47;;;;;;;27.07;12.40;;;;;;;2.88;62.94;101266.50;5014019;28;20267;-66
2024/01/19 14:07:20;;;;;;;21.93;10.70;;;;;;;2.71;63.65;101263.91;5012388;28;20216;-65
2024/01/19 14:09:51;;;;;;;22.93;10.87;;;;;;;2.65;64.26;101279.00;5016156;28;20220;-65
2024/01/19 14:12:20;;;;;;;24.60;10.87;;;;;;;2.66;64.31;101277.22;5012893;28;20258;-66
2024/01/19 14:14:58;;;;;;;21.93;11.30;;;;;;;2.66;64.66;101279.84;5017945;28;20226;-66
2024/01/19 14:17:26;;;;;;;20.67;10.57;;;;;;;2.62;64.84;101279.19;5014719;28;20255;-65
2024/01/19 14:19:55;;;;;;;22.67;10.43;;;;;;;2.64;65.22;101277.31;5015256;28;20234;-65
2024/01/19 14:22:26;;;;;;;25.27;11.03;;;;;;;2.66;65.43;101285.09;5018207;28;20226;-65
2024/01/19 14:24:55;;;;;;;23.70;11.47;;;;;;;2.78;65.61;101281.00;5023059;28;20230;-65
2024/01/19 14:27:28;;;;;;;25.93;11.27;;;;;;;2.88;65.38;101285.69;5021103;28;20286;-65
2024/01/19 14:29:56;;;;;;;20.83;10.63;;;;;;;2.97;64.85;101279.97;5018061;28;20217;-65
2024/01/19 14:32:25;;;;;;;28.27;11.17;;;;;;;3.01;64.49;101285.91;5018673;28;20732;-65
2024/01/19 14:34:55;;;;;;;27.07;12.57;;;;;;;2.95;64.58;101292.31;5019631;28;20207;-65
2024/01/19 14:37:25;;;;;;;26.30;12.23;;;;;;;2.92;64.84;101302.09;5018032;28;20234;-66
2024/01/19 14:39:55;;;;;;;26.23;11.93;;;;;;;2.99;64.78;101303.50;5018202;28;20231;-65
2024/01/19 14:42:23;;;;;;;25.67;11.40;;;;;;;3.08;64.49;101302.97;5019747;28;20208;-66
2024/01/19 14:44:51;;;;;;;21.73;10.53;;;;;;;3.10;63.91;101306.38;5016727;28;20212;-66
2024/01/19 14:47:20;;;;;;;18.70;9.77;;;;;;;3.05;64.24;101313.66;5017325;28;20203;-68
2024/01/19 14:49:51;;;;;;;27.90;11.90;;;;;;;3.10;64.24;101322.09;5018809;28;20266;-66
2024/01/19 14:52:21;;;;;;;22.90;11.07;;;;;;;3.09;64.07;101328.25;5016769;28;20215;-65
2024/01/19 14:54:51;;;;;;;25.83;10.33;;;;;;;3.16;63.87;101334.06;5015556;28;20243;-65
2024/01/19 14:57:23;;;;;;;21.90;10.73;;;;;;;3.17;63.87;101333.94;5017252;28;20234;-65
2024/01/19 14:59:51;;;;;;;26.17;11.33;;;;;;;3.12;63.69;101338.59;5015128;28;20223;-65
2024/01/19 15:02:20;;;;;;;21.60;10.80;;;;;;;3.10;63.71;101339.59;5016499;28;20247;-66
2024/01/19 15:04:48;;;;;;;22.40;10.33;;;;;;;3.06;63.73;101345.94;5017725;28;20209;-65
2024/01/19 15:07:16;;;;;;;25.63;11.57;;;;;;;3.03;64.06;101341.69;5017451;28;21046;-66
2024/01/19 15:09:45;;;;;;;27.37;12.77;;;;;;;2.94;64.38;101355.25;5014497;28;20235;-65
2024/01/19 15:12:13;;;;;;;29.37;12.17;;;;;;;2.83;64.74;101354.94;5015946;28;20242;-66
2024/01/19 15:14:43;;;;;;;27.83;12.40;;;;;;;2.80;65.02;101355.13;5016652;28;20243;-66
2024/01/19 15:17:11;;;;;;;24.07;12.47;;;;;;;2.83;64.87;101360.19;5021670;28;20219;-67
2024/01/19 15:19:39;;;;;;;27.23;13.00;;;;;;;2.84;64.73;101364.50;5021288;28;20614;-65
2024/01/19 15:22:07;;;;;;;28.70;13.87;;;;;;;2.82;64.62;101363.72;5015926;28;20282;-66
2024/01/19 15:24:36;;;;;;;35.00;16.77;;;;;;;2.76;64.80;101364.03;5016162;28;20228;-65
2024/01/19 15:27:04;;;;;;;35.70;16.10;;;;;;;2.63;64.96;101364.69;5017181;28;20752;-65
2024/01/19 15:29:33;;;;;;;39.00;17.70;;;;;;;2.56;65.10;101368.50;5020382;28;20211;-66
2024/01/19 15:32:05;;;;;;;32.93;16.30;;;;;;;2.49;65.59;101371.50;5014047;28;20211;-66
2024/01/19 15:34:41;;;;;;;36.07;16.93;;;;;;;2.40;66.06;101385.88;5017334;28;20210;-66
2024/01/19 15:37:12;;;;;;;34.33;16.10;;;;;;;2.42;66.35;101380.56;5017133;28;20249;-67
2024/01/19 15:39:43;;;;;;;29.80;14.23;;;;;;;2.41;66.67;101390.19;5017457;28;20211;-66
2024/01/19 15:42:12;;;;;;;27.43;12.80;;;;;;;2.40;66.94;101390.25;5017074;28;20210;-66
2024/01/19 15:44:42;;;;;;;25.50;12.00;;;;;;;2.39;66.59;101396.41;5017447;28;20209;-65
2024/01/19 15:47:11;;;;;;;25.77;12.43;;;;;;;2.41;66.50;101402.44;5019382;28;20219;-65
2024/01/19 15:49:40;;;;;;;26.10;12.13;;;;;;;2.42;66.32;101402.38;5017339;28;20281;-65
2024/01/19 15:52:10;;;;;;;26.60;11.50;;;;;;;2.38;66.35;101395.56;5015695;28;20683;-67
2024/01/19 15:54:40;;;;;;;28.93;12.97;;;;;;;2.38;66.96;101407.81;5015129;28;20219;-66
2024/01/19 15:57:09;;;;;;;24.23;11.27;;;;;;;2.18;67.42;101411.38;5017719;28;20205;-66
2024/01/19 15:59:38;;;;;;;28.10;13.50;;;;;;;2.14;67.29;101415.91;5018975;28;20216;-66
2024/01/19 16:02:07;;;;;;;23.70;11.80;;;;;;;2.16;67.31;101426.31;5019354;28;20217;-65
2024/01/19 16:04:56;;;;;;;19.80;10.07;;;;;;;2.14;67.25;101421.13;5014620;28;20211;-66
2024/01/19 16:07:28;;;;;;;20.60;9.33;;;;;;;2.15;66.79;101429.84;5015471;28;20216;-66
2024/01/19 16:09:59;;;;;;;19.47;8.87;;;;;;;2.13;66.42;101434.28;5020428;28;20677;-65
2024/01/19 16:12:28;;;;;;;18.37;8.27;;;;;;;2.11;66.03;101433.53;5018657;28;20220;-65